Time;durP1;ratioP1;P1;durP2;ratioP2;P2;SDS_P1;SDS_P2;PMS_P1;PMS_P2;Temp;Humidity;BMP_temperature;BMP_pressure;BME280_temperature;BME280_humidity;BME280_pressure;Samples;Min_cycle;Max_cycle;Signal;HPM_P1;HPM_P2
2021/09/18 00:01:02;;;;;;;6.20;2.53;;;25.80;56.80;;;;;;5043714;28;20439;-25
2021/09/18 00:03:34;;;;;;;4.87;2.80;;;25.90;55.20;;;;;;5044367;28;20478;-25
2021/09/18 00:06:24;;;;;;;4.20;2.60;;;25.80;55.80;;;;;;5043118;28;20462;-25
2021/09/18 00:08:55;;;;;;;6.70;2.30;;;25.70;56.10;;;;;;5043740;28;20494;-25
2021/09/18 00:11:26;;;;;;;5.00;2.40;;;25.80;55.20;;;;;;5042674;28;20486;-25
2021/09/18 00:13:57;;;;;;;6.77;2.47;;;25.60;56.80;;;;;;5044827;28;20540;-25
2021/09/18 00:16:30;;;;;;;4.77;2.20;;;25.50;57.50;;;;;;5043334;28;20476;-26
2021/09/18 00:19:01;;;;;;;2.90;2.10;;;25.40;57.60;;;;;;5044516;28;20442;-26
2021/09/18 00:21:32;;;;;;;6.03;1.80;;;25.40;56.90;;;;;;5043486;28;20468;-25
2021/09/18 00:24:03;;;;;;;3.43;1.80;;;25.30;58.00;;;;;;5043804;28;20489;-25
2021/09/18 00:26:34;;;;;;;4.33;2.13;;;25.40;57.70;;;;;;5043456;28;20468;-25
2021/09/18 00:29:06;;;;;;;5.03;2.13;;;25.50;57.80;;;;;;5042111;28;20500;-25
2021/09/18 00:31:38;;;;;;;6.43;1.80;;;25.40;59.20;;;;;;5042503;28;20445;-25
2021/09/18 00:34:09;;;;;;;7.60;2.20;;;25.30;58.60;;;;;;5044383;28;20449;-24
2021/09/18 00:36:40;;;;;;;2.83;1.90;;;25.30;59.80;;;;;;5044258;28;20789;-25
2021/09/18 00:39:11;;;;;;;4.97;1.90;;;25.20;60.30;;;;;;5033150;28;20830;-25
2021/09/18 00:41:43;;;;;;;3.77;2.10;;;25.20;60.50;;;;;;5042709;28;20449;-24
2021/09/18 00:44:20;;;;;;;9.63;1.90;;;25.10;61.70;;;;;;5042172;28;20465;-25
2021/09/18 00:46:53;;;;;;;5.70;1.70;;;24.90;62.90;;;;;;5043641;28;20460;-25
2021/09/18 00:49:24;;;;;;;3.10;1.80;;;24.90;63.70;;;;;;5044803;28;20980;-24
2021/09/18 00:51:55;;;;;;;3.37;1.50;;;24.80;64.70;;;;;;5044490;28;20874;-25
2021/09/18 00:54:26;;;;;;;6.10;1.60;;;24.70;65.70;;;;;;5044452;28;20938;-24
2021/09/18 00:56:59;;;;;;;2.53;1.17;;;24.60;67.40;;;;;;5044199;28;20461;-24
2021/09/18 00:59:30;;;;;;;2.43;2.00;;;24.60;69.10;;;;;;5044700;28;20452;-25
2021/09/18 01:02:03;;;;;;;5.30;3.20;;;24.60;70.20;;;;;;5043502;28;20445;-25
2021/09/18 01:04:35;;;;;;;6.50;4.33;;;24.50;70.90;;;;;;5044254;28;20551;-25
2021/09/18 01:07:06;;;;;;;3.77;3.40;;;24.50;71.30;;;;;;5042062;28;20433;-25
2021/09/18 01:09:38;;;;;;;4.23;2.60;;;24.50;72.10;;;;;;5024399;28;20494;-25
2021/09/18 01:12:09;;;;;;;1.97;1.60;;;24.40;72.20;;;;;;5024344;28;20454;-25
2021/09/18 01:14:46;;;;;;;3.20;1.47;;;24.40;73.10;;;;;;5024266;28;20497;-25
2021/09/18 01:17:19;;;;;;;3.53;1.60;;;24.40;73.60;;;;;;5023170;28;20521;-25
2021/09/18 01:19:50;;;;;;;3.37;1.53;;;24.20;74.10;;;;;;5024665;28;20775;-24
2021/09/18 01:22:24;;;;;;;3.23;1.27;;;24.30;74.30;;;;;;5024480;28;20434;-25
2021/09/18 01:24:57;;;;;;;2.57;1.50;;;24.30;74.10;;;;;;5024285;28;20449;-25
2021/09/18 01:27:28;;;;;;;2.70;1.67;;;24.30;74.20;;;;;;5023655;28;20458;-25
2021/09/18 01:29:59;;;;;;;6.60;1.93;;;24.30;73.70;;;;;;5037665;28;20509;-25
2021/09/18 01:32:30;;;;;;;5.33;1.57;;;24.20;74.00;;;;;;5042820;28;20809;-25
2021/09/18 01:35:02;;;;;;;5.40;1.97;;;24.20;74.10;;;;;;5043619;28;20445;-26
2021/09/18 01:37:33;;;;;;;1.63;1.40;;;24.20;74.20;;;;;;5044041;28;20434;-24
2021/09/18 01:40:06;;;;;;;4.83;1.50;;;24.10;75.10;;;;;;5044071;28;20476;-25
2021/09/18 01:42:43;;;;;;;2.30;1.10;;;24.10;76.30;;;;;;5043418;28;20453;-25
2021/09/18 01:45:15;;;;;;;7.27;2.00;;;24.00;78.70;;;;;;5043567;28;20460;-25
2021/09/18 01:47:48;;;;;;;3.07;0.90;;;24.00;79.70;;;;;;5042236;28;20452;-25
2021/09/18 01:50:27;;;;;;;2.57;1.00;;;24.00;80.50;;;;;;5043759;28;20492;-25
2021/09/18 01:53:00;;;;;;;5.40;2.33;;;24.00;82.70;;;;;;5043862;28;20437;-25
2021/09/18 01:55:34;;;;;;;2.17;1.80;;;24.00;84.10;;;;;;5043042;28;20445;-24
2021/09/18 01:58:06;;;;;;;4.50;1.00;;;23.90;84.80;;;;;;5043454;28;20420;-25
2021/09/18 02:00:40;;;;;;;7.93;1.07;;;23.80;86.90;;;;;;5043500;28;20450;-25
2021/09/18 02:03:12;;;;;;;3.27;0.90;;;23.70;88.80;;;;;;5042227;28;20469;-25
2021/09/18 02:05:44;;;;;;;2.60;0.67;;;23.60;90.40;;;;;;5043124;28;20526;-25
2021/09/18 02:08:15;;;;;;;3.83;0.73;;;23.50;91.10;;;;;;5043754;28;20433;-25
2021/09/18 02:10:48;;;;;;;1.80;0.70;;;23.40;92.00;;;;;;5043369;28;20460;-25
2021/09/18 02:13:19;;;;;;;1.30;0.70;;;23.40;92.50;;;;;;5043153;28;20464;-25
2021/09/18 02:15:50;;;;;;;2.70;0.70;;;23.30;92.90;;;;;;5042705;28;20453;-25
2021/09/18 02:18:21;;;;;;;4.23;0.70;;;23.20;93.60;;;;;;5042985;28;20445;-25
2021/09/18 02:20:52;;;;;;;1.23;1.00;;;23.20;94.30;;;;;;5043178;28;20429;-24
2021/09/18 02:23:23;;;;;;;1.80;0.50;;;23.20;94.90;;;;;;5043815;28;20434;-24
2021/09/18 02:25:56;;;;;;;5.40;0.60;;;23.10;95.50;;;;;;5042696;28;20461;-25
2021/09/18 02:28:27;;;;;;;1.67;0.63;;;23.10;96.20;;;;;;5044962;28;20489;-25
2021/09/18 02:30:58;;;;;;;1.70;0.60;;;23.10;96.90;;;;;;5046396;28;20494;-24
2021/09/18 02:33:29;;;;;;;1.20;0.50;;;23.00;97.30;;;;;;5047315;28;20449;-24
2021/09/18 02:36:00;;;;;;;1.20;0.50;;;23.00;97.70;;;;;;5046768;28;20452;-24
2021/09/18 02:38:31;;;;;;;0.60;0.60;;;22.90;98.00;;;;;;5047773;28;20480;-25
2021/09/18 02:41:04;;;;;;;2.70;0.60;;;22.90;98.20;;;;;;5046917;28;20457;-25
2021/09/18 02:43:35;;;;;;;1.70;0.63;;;22.90;98.20;;;;;;5047176;28;20471;-25
2021/09/18 02:46:06;;;;;;;2.50;0.80;;;22.80;98.50;;;;;;5045950;28;20449;-25
2021/09/18 02:48:37;;;;;;;1.20;0.70;;;22.90;98.70;;;;;;5047341;28;20449;-25
2021/09/18 02:51:25;;;;;;;3.07;0.80;;;22.90;99.10;;;;;;5046877;28;20604;-25
2021/09/18 02:53:56;;;;;;;4.40;0.60;;;22.80;99.00;;;;;;5047704;28;20559;-25
2021/09/18 02:56:29;;;;;;;8.00;0.80;;;22.80;98.90;;;;;;5046193;28;20445;-24
2021/09/18 02:59:00;;;;;;;3.10;0.70;;;22.80;98.90;;;;;;5047192;28;20419;-24
2021/09/18 03:01:31;;;;;;;3.90;1.07;;;22.80;99.20;;;;;;5045828;28;20434;-24
2021/09/18 03:04:21;;;;;;;2.60;0.60;;;22.80;99.40;;;;;;5046675;28;20527;-24
2021/09/18 03:06:52;;;;;;;4.20;0.67;;;22.80;99.40;;;;;;5045714;28;20842;-24
2021/09/18 03:09:23;;;;;;;2.80;0.77;;;22.70;99.60;;;;;;5026681;28;20461;-25
2021/09/18 03:11:56;;;;;;;3.47;0.60;;;22.70;99.80;;;;;;5026972;28;20896;-24
2021/09/18 03:14:27;;;;;;;2.17;0.40;;;22.70;99.90;;;;;;5027065;28;20790;-25
2021/09/18 03:16:58;;;;;;;3.50;0.80;;;22.60;99.90;;;;;;5025180;28;20450;-25
2021/09/18 03:19:29;;;;;;;2.57;0.93;;;22.50;99.90;;;;;;5026970;28;20449;-25
2021/09/18 03:22:00;;;;;;;2.17;0.77;;;22.50;99.90;;;;;;5026224;28;20454;-25
2021/09/18 03:24:31;;;;;;;1.90;0.60;;;22.50;99.90;;;;;;5026416;28;20439;-25
2021/09/18 03:27:04;;;;;;;2.00;0.57;;;22.50;99.90;;;;;;5026225;28;20459;-25
2021/09/18 03:29:35;;;;;;;2.43;0.73;;;22.40;99.90;;;;;;5036426;28;20907;-25
2021/09/18 03:32:06;;;;;;;0.60;0.60;;;22.40;99.90;;;;;;5044838;28;20535;-26
2021/09/18 03:34:37;;;;;;;1.83;0.80;;;22.40;99.90;;;;;;5046160;28;20420;-25
2021/09/18 03:37:08;;;;;;;1.83;0.77;;;22.40;99.90;;;;;;5045356;28;20459;-26
2021/09/18 03:39:39;;;;;;;0.70;0.70;;;22.40;99.90;;;;;;5046378;28;20440;-26
2021/09/18 03:42:12;;;;;;;0.70;0.50;;;22.40;99.90;;;;;;5046314;28;20842;-26
2021/09/18 03:44:43;;;;;;;0.73;0.63;;;22.40;99.90;;;;;;5046209;28;20445;-25
2021/09/18 03:47:14;;;;;;;2.43;0.93;;;22.30;99.90;;;;;;5044443;28;21003;-25
2021/09/18 03:49:45;;;;;;;1.17;0.70;;;22.30;99.90;;;;;;5046109;28;20431;-25
2021/09/18 03:52:16;;;;;;;4.50;0.90;;;22.30;99.90;;;;;;5045478;28;20586;-25
2021/09/18 03:54:47;;;;;;;3.60;0.60;;;22.30;99.90;;;;;;5046104;28;20517;-25
2021/09/18 03:57:19;;;;;;;2.30;0.57;;;22.30;99.90;;;;;;5045595;28;20446;-25
2021/09/18 03:59:50;;;;;;;1.57;0.73;;;22.20;99.90;;;;;;5045922;28;20527;-26
2021/09/18 04:02:21;;;;;;;1.37;0.60;;;22.10;99.90;;;;;;5044767;28;20511;-25
2021/09/18 04:04:53;;;;;;;1.37;0.70;;;22.10;99.90;;;;;;5045307;28;20448;-25
2021/09/18 04:07:24;;;;;;;2.60;0.87;;;22.00;99.90;;;;;;5044823;28;20444;-25
2021/09/18 04:09:55;;;;;;;2.30;0.63;;;21.90;99.90;;;;;;5046067;28;20408;-25
2021/09/18 04:12:27;;;;;;;3.30;0.80;;;21.90;99.90;;;;;;5044890;28;20931;-25
2021/09/18 04:14:58;;;;;;;1.67;0.50;;;21.80;99.90;;;;;;5045617;28;20436;-26
2021/09/18 04:17:29;;;;;;;2.20;0.73;;;21.80;99.90;;;;;;5043825;28;20454;-26
2021/09/18 04:20:00;;;;;;;1.33;0.50;;;21.80;99.90;;;;;;5045423;28;20452;-26
2021/09/18 04:22:31;;;;;;;0.80;0.57;;;21.90;99.90;;;;;;5045048;28;20465;-25
2021/09/18 04:25:03;;;;;;;1.90;0.50;;;21.90;99.90;;;;;;5045503;28;20441;-23
2021/09/18 04:27:36;;;;;;;3.80;0.63;;;22.00;99.90;;;;;;5044565;28;20460;-24
2021/09/18 04:30:08;;;;;;;0.67;0.67;;;22.00;99.90;;;;;;5044947;28;20419;-24
2021/09/18 04:32:39;;;;;;;0.50;0.50;;;22.00;99.90;;;;;;5044134;28;20515;-24
2021/09/18 04:35:11;;;;;;;1.13;1.03;;;22.10;99.90;;;;;;5045220;28;20971;-24
2021/09/18 04:37:42;;;;;;;0.43;0.43;;;22.10;99.90;;;;;;5044704;28;20440;-24
2021/09/18 04:40:13;;;;;;;0.93;0.60;;;22.10;99.90;;;;;;5045537;28;20442;-24
2021/09/18 04:42:46;;;;;;;3.70;0.63;;;22.10;99.90;;;;;;5044626;28;20424;-25
2021/09/18 04:45:17;;;;;;;3.90;0.63;;;22.10;99.90;;;;;;5044965;28;20464;-25
2021/09/18 04:47:48;;;;;;;0.70;0.50;;;22.10;99.90;;;;;;5043674;28;20445;-24
2021/09/18 04:50:19;;;;;;;1.13;0.57;;;22.10;99.90;;;;;;5044562;28;20478;-23
2021/09/18 04:52:50;;;;;;;1.33;0.47;;;22.10;99.90;;;;;;5044557;28;20503;-25
2021/09/18 04:55:21;;;;;;;2.70;0.80;;;22.10;99.90;;;;;;5045046;28;20413;-24
2021/09/18 04:57:53;;;;;;;1.23;1.10;;;22.00;99.90;;;;;;5044068;28;20480;-23
2021/09/18 05:00:25;;;;;;;3.13;0.63;;;22.10;99.90;;;;;;5044801;28;20963;-24
2021/09/18 05:02:56;;;;;;;1.80;0.73;;;22.00;99.90;;;;;;5043274;28;20628;-24
2021/09/18 05:05:27;;;;;;;0.60;0.47;;;22.00;99.90;;;;;;5044664;28;20934;-25
2021/09/18 05:07:58;;;;;;;0.90;0.43;;;22.00;99.90;;;;;;5034368;28;20446;-25
2021/09/18 05:10:29;;;;;;;1.43;0.60;;;21.90;99.90;;;;;;5025109;28;20427;-26
2021/09/18 05:13:02;;;;;;;0.67;0.57;;;21.90;99.90;;;;;;5024400;28;20465;-25
2021/09/18 05:15:33;;;;;;;1.90;0.73;;;21.90;99.90;;;;;;5024676;28;20450;-25
2021/09/18 05:18:04;;;;;;;0.60;0.57;;;21.90;99.90;;;;;;5023225;28;20447;-26
2021/09/18 05:20:35;;;;;;;2.60;0.70;;;22.00;99.90;;;;;;5024513;28;20429;-25
2021/09/18 05:23:06;;;;;;;4.13;0.70;;;21.90;99.90;;;;;;5024086;28;20425;-25
2021/09/18 05:25:37;;;;;;;1.23;0.63;;;21.90;99.90;;;;;;5024731;28;20466;-25
2021/09/18 05:28:10;;;;;;;0.77;0.50;;;21.90;99.90;;;;;;5023691;28;20962;-26
2021/09/18 05:30:41;;;;;;;8.63;1.00;;;21.90;99.90;;;;;;5043188;28;20444;-25
2021/09/18 05:33:12;;;;;;;19.37;2.40;;;21.80;99.90;;;;;;5042964;28;20519;-25
2021/09/18 05:35:43;;;;;;;6.23;0.80;;;21.80;99.90;;;;;;5043916;28;20476;-25
2021/09/18 05:38:14;;;;;;;3.63;0.60;;;21.80;99.90;;;;;;5043558;28;20472;-26
2021/09/18 05:40:44;;;;;;;3.73;0.70;;;21.80;99.90;;;;;;5044233;28;20430;-25
2021/09/18 05:43:17;;;;;;;5.40;0.70;;;21.70;99.90;;;;;;5043827;28;20449;-26
2021/09/18 05:45:48;;;;;;;0.97;0.80;;;21.70;99.90;;;;;;5043568;28;20424;-25
2021/09/18 05:48:19;;;;;;;4.27;0.83;;;21.70;99.90;;;;;;5042825;28;20810;-25
2021/09/18 05:50:50;;;;;;;1.70;0.70;;;21.70;99.90;;;;;;5043780;28;20473;-25
2021/09/18 05:53:21;;;;;;;2.13;1.00;;;21.60;99.90;;;;;;5043999;28;20451;-25
2021/09/18 05:55:52;;;;;;;6.10;1.00;;;21.60;99.90;;;;;;5043750;28;20478;-25
2021/09/18 05:58:24;;;;;;;4.43;0.90;;;21.70;99.90;;;;;;5043644;28;20453;-25
2021/09/18 06:00:55;;;;;;;1.60;0.60;;;21.70;99.90;;;;;;5043148;28;20883;-26
2021/09/18 06:03:46;;;;;;;6.33;1.00;;;21.70;99.90;;;;;;5042714;28;20451;-26
2021/09/18 06:06:17;;;;;;;3.60;0.90;;;21.60;99.90;;;;;;5043411;28;20492;-25
2021/09/18 06:08:48;;;;;;;3.40;0.70;;;21.60;99.90;;;;;;5043370;28;21000;-26
2021/09/18 06:11:19;;;;;;;3.90;1.17;;;21.60;99.90;;;;;;5043833;28;20800;-25
2021/09/18 06:13:52;;;;;;;6.57;0.83;;;21.60;99.90;;;;;;5043594;28;20453;-25
2021/09/18 06:16:24;;;;;;;5.60;1.17;;;21.60;99.90;;;;;;5042448;28;20424;-25
2021/09/18 06:18:55;;;;;;;9.93;1.37;;;21.60;99.90;;;;;;5043380;28;20489;-26
2021/09/18 06:21:27;;;;;;;12.60;1.83;;;21.60;99.90;;;;;;5043091;28;20435;-26
2021/09/18 06:23:57;;;;;;;11.07;1.20;;;21.50;99.90;;;;;;5043071;28;20473;-25
2021/09/18 06:26:30;;;;;;;9.53;1.67;;;21.20;99.90;;;;;;5043357;28;20437;-24
2021/09/18 06:29:02;;;;;;;9.57;1.20;;;20.80;99.90;;;;;;5042455;28;20445;-24
2021/09/18 06:31:34;;;;;;;6.00;1.40;;;20.50;99.90;;;;;;5041776;28;20445;-23
2021/09/18 06:34:05;;;;;;;4.00;1.30;;;20.00;99.90;;;;;;5043274;28;20479;-23
2021/09/18 06:36:36;;;;;;;9.07;1.13;;;19.70;99.90;;;;;;5042910;28;20429;-23
2021/09/18 06:39:07;;;;;;;4.40;1.43;;;19.50;99.90;;;;;;5042326;28;20533;-24
2021/09/18 06:41:38;;;;;;;10.83;1.83;;;19.40;99.90;;;;;;5042974;28;20433;-23
2021/09/18 06:44:10;;;;;;;3.43;1.07;;;19.30;99.90;;;;;;5042951;28;20511;-23
2021/09/18 06:46:41;;;;;;;2.10;0.70;;;19.10;99.90;;;;;;5041777;28;20499;-24
2021/09/18 06:49:12;;;;;;;2.83;0.50;;;18.80;99.90;;;;;;5042646;28;20819;-24
2021/09/18 06:51:43;;;;;;;2.07;0.80;;;18.50;99.90;;;;;;5042340;28;20473;-24
2021/09/18 06:54:14;;;;;;;1.53;0.70;;;18.40;99.90;;;;;;5043184;28;20877;-25
2021/09/18 06:56:45;;;;;;;0.63;0.60;;;18.20;99.90;;;;;;5042650;28;20440;-24
2021/09/18 06:59:17;;;;;;;2.03;0.40;;;18.10;99.90;;;;;;5042385;28;20449;-24
2021/09/18 07:01:48;;;;;;;0.40;0.20;;;18.10;99.90;;;;;;5041757;28;20979;-24
2021/09/18 07:04:20;;;;;;;0.97;0.50;;;18.00;99.90;;;;;;5042641;28;20472;-24
2021/09/18 07:06:51;;;;;;;1.40;0.20;;;17.90;99.90;;;;;;5041980;28;20481;-24
2021/09/18 07:09:22;;;;;;;0.50;0.20;;;17.80;99.90;;;;;;5022953;28;20466;-24
2021/09/18 07:11:53;;;;;;;0.40;0.30;;;17.80;99.90;;;;;;5022710;28;20826;-24
2021/09/18 07:14:26;;;;;;;0.40;0.20;;;17.70;99.90;;;;;;5024496;28;20450;-24
2021/09/18 07:16:56;;;;;;;0.30;0.20;;;17.60;99.90;;;;;;5025453;28;20450;-24
2021/09/18 07:19:27;;;;;;;0.40;0.20;;;17.60;99.90;;;;;;5026511;28;20492;-24
2021/09/18 07:21:58;;;;;;;0.40;0.20;;;17.50;99.90;;;;;;5025984;28;20484;-24
2021/09/18 07:24:32;;;;;;;0.50;0.30;;;17.50;99.90;;;;;;5027397;28;20557;-23
2021/09/18 07:27:03;;;;;;;0.30;0.20;;;17.50;99.90;;;;;;5026514;28;20480;-23
2021/09/18 07:29:36;;;;;;;0.70;0.40;;;17.40;99.90;;;;;;5036285;28;20464;-24
2021/09/18 07:32:07;;;;;;;1.67;1.10;;;17.30;99.90;;;;;;5044978;28;20473;-23
2021/09/18 07:34:38;;;;;;;0.47;0.20;;;17.20;99.90;;;;;;5046322;28;20473;-24
2021/09/18 07:37:09;;;;;;;1.13;0.40;;;17.20;99.90;;;;;;5046150;28;20441;-24
2021/09/18 07:39:40;;;;;;;1.37;0.50;;;17.30;99.90;;;;;;5046465;28;20441;-24
2021/09/18 07:42:11;;;;;;;0.60;0.30;;;17.30;99.90;;;;;;5045941;28;20428;-24
2021/09/18 07:44:44;;;;;;;0.90;0.20;;;17.30;99.90;;;;;;5046048;28;20453;-24
2021/09/18 07:47:15;;;;;;;0.40;0.33;;;17.20;99.90;;;;;;5044997;28;20512;-24
2021/09/18 07:49:46;;;;;;;0.50;0.23;;;17.20;99.90;;;;;;5045976;28;20509;-24
2021/09/18 07:52:18;;;;;;;0.30;0.20;;;17.20;99.90;;;;;;5045853;28;20446;-24
2021/09/18 07:54:49;;;;;;;0.40;0.30;;;17.10;99.90;;;;;;5046790;28;20437;-24
2021/09/18 07:57:40;;;;;;;0.50;0.30;;;17.20;99.90;;;;;;5046007;28;20433;-23
2021/09/18 08:00:13;;;;;;;1.23;0.23;;;17.20;99.90;;;;;;5045890;28;20479;-22
2021/09/18 08:02:45;;;;;;;0.40;0.20;;;17.10;99.90;;;;;;5044691;28;20453;-23
2021/09/18 08:05:17;;;;;;;0.77;0.30;;;17.00;99.90;;;;;;5045833;28;20445;-22
2021/09/18 08:07:48;;;;;;;0.73;0.30;;;17.00;99.90;;;;;;5045687;28;20491;-22
2021/09/18 08:10:19;;;;;;;0.53;0.50;;;17.00;99.90;;;;;;5045587;28;20473;-23
2021/09/18 08:12:50;;;;;;;1.33;0.40;;;17.00;99.90;;;;;;5045801;28;20579;-22
2021/09/18 08:15:23;;;;;;;0.50;0.37;;;17.00;99.90;;;;;;5045733;28;20519;-22
2021/09/18 08:17:54;;;;;;;0.80;0.50;;;16.90;99.90;;;;;;5044593;28;20449;-22
2021/09/18 08:20:25;;;;;;;1.13;0.40;;;16.90;99.90;;;;;;5045359;28;20986;-23
2021/09/18 08:22:56;;;;;;;0.50;0.50;;;16.90;99.90;;;;;;5045620;28;20546;-23
2021/09/18 08:25:27;;;;;;;0.83;0.30;;;16.80;99.90;;;;;;5044650;28;20442;-23
2021/09/18 08:27:59;;;;;;;10.17;1.33;;;16.90;99.90;;;;;;5045481;28;20513;-23
2021/09/18 08:30:34;;;;;;;0.77;0.40;;;16.90;99.90;;;;;;5045026;28;20971;-23
2021/09/18 08:33:05;;;;;;;0.40;0.30;;;16.90;99.90;;;;;;5044278;28;20488;-23
2021/09/18 08:35:36;;;;;;;0.80;0.43;;;16.80;99.90;;;;;;5045366;28;20552;-23
2021/09/18 08:38:07;;;;;;;0.40;0.40;;;16.80;99.90;;;;;;5044969;28;20444;-23
2021/09/18 08:40:39;;;;;;;0.83;0.50;;;16.70;99.90;;;;;;5045128;28;20858;-23
2021/09/18 08:43:10;;;;;;;1.43;0.40;;;16.80;99.90;;;;;;5045174;28;20441;-23
2021/09/18 08:45:43;;;;;;;1.00;0.43;;;16.70;99.90;;;;;;5045091;28;20755;-23
2021/09/18 08:48:16;;;;;;;1.00;0.50;;;16.70;99.90;;;;;;5044086;28;20517;-23
2021/09/18 08:50:49;;;;;;;1.20;0.60;;;16.70;99.90;;;;;;5044727;28;20453;-23
2021/09/18 08:53:21;;;;;;;1.00;0.87;;;16.60;99.90;;;;;;5044735;28;20481;-23
2021/09/18 08:55:55;;;;;;;0.97;0.70;;;16.60;99.90;;;;;;5044545;28;20437;-22
2021/09/18 08:58:26;;;;;;;1.30;0.90;;;16.60;99.90;;;;;;5045041;28;20444;-23
2021/09/18 09:01:00;;;;;;;1.23;0.73;;;16.50;99.90;;;;;;5043784;28;20449;-23
2021/09/18 09:03:34;;;;;;;1.00;0.90;;;16.40;99.90;;;;;;5044499;28;20480;-23
2021/09/18 09:06:25;;;;;;;1.50;1.10;;;16.30;99.90;;;;;;5044286;28;20890;-23
2021/09/18 09:09:01;;;;;;;0.83;0.60;;;16.30;99.90;;;;;;5027243;28;20450;-23
2021/09/18 09:11:32;;;;;;;1.20;0.70;;;16.20;99.90;;;;;;5023856;28;20504;-22
2021/09/18 09:14:04;;;;;;;1.37;1.03;;;16.10;99.90;;;;;;5024547;28;20489;-23
2021/09/18 09:16:38;;;;;;;0.70;0.50;;;15.90;99.90;;;;;;5023760;28;20553;-22
2021/09/18 09:19:16;;;;;;;0.80;0.60;;;15.90;99.90;;;;;;5024764;28;20478;-23
2021/09/18 09:21:52;;;;;;;0.90;0.50;;;15.90;99.90;;;;;;5023862;28;20933;-22
2021/09/18 09:24:26;;;;;;;1.43;0.60;;;15.80;99.90;;;;;;5024745;28;20776;-22
2021/09/18 09:27:11;;;;;;;1.00;0.57;;;15.80;99.90;;;;;;5024089;28;20485;-22
2021/09/18 09:29:43;;;;;;;0.80;0.60;;;15.70;99.90;;;;;;5034806;28;20476;-23
2021/09/18 09:32:33;;;;;;;1.00;0.80;;;15.70;99.90;;;;;;5043128;28;20750;-22
2021/09/18 09:35:09;;;;;;;0.87;0.53;;;15.70;99.90;;;;;;5043808;28;20509;-22
2021/09/18 09:37:40;;;;;;;1.00;0.53;;;15.70;99.90;;;;;;5043188;28;20483;-23
2021/09/18 09:40:12;;;;;;;1.30;0.50;;;15.60;99.90;;;;;;5044034;28;20445;-22
2021/09/18 09:42:47;;;;;;;0.67;0.67;;;15.50;99.90;;;;;;5043359;28;20449;-22
2021/09/18 09:45:20;;;;;;;0.80;0.70;;;15.50;99.90;;;;;;5043464;28;20528;-22
2021/09/18 09:48:05;;;;;;;0.67;0.60;;;15.40;99.90;;;;;;5042621;28;20894;-22
2021/09/18 09:50:37;;;;;;;0.60;0.60;;;15.30;99.90;;;;;;5043473;28;20533;-23
2021/09/18 09:53:24;;;;;;;1.00;1.00;;;15.30;99.90;;;;;;5043509;28;20437;-23
2021/09/18 09:55:55;;;;;;;0.87;0.70;;;15.30;99.90;;;;;;5043000;28;20488;-23
2021/09/18 09:58:26;;;;;;;1.83;1.00;;;15.30;99.90;;;;;;5043267;28;20449;-23
2021/09/18 10:00:57;;;;;;;1.33;0.67;;;15.20;99.90;;;;;;5042255;28;20457;-23
2021/09/18 10:03:30;;;;;;;1.30;0.80;;;15.20;99.90;;;;;;5043334;28;20509;-23
2021/09/18 10:06:03;;;;;;;1.57;0.93;;;15.20;99.90;;;;;;5042958;28;20933;-23
2021/09/18 10:08:52;;;;;;;1.13;1.10;;;15.10;99.90;;;;;;5043535;28;20425;-23
2021/09/18 10:11:30;;;;;;;1.70;1.00;;;15.10;99.90;;;;;;5043253;28;20445;-23
2021/09/18 10:14:01;;;;;;;1.97;1.50;;;15.10;99.90;;;;;;5043245;28;20488;-23
2021/09/18 10:16:34;;;;;;;2.10;1.03;;;15.10;99.90;;;;;;5042128;28;20454;-23
2021/09/18 10:19:09;;;;;;;0.80;0.80;;;15.00;99.90;;;;;;5043383;28;20449;-24
2021/09/18 10:24:29;;;;;;;1.00;0.93;;;15.00;99.90;;;;;;5042866;28;20445;-24
2021/09/18 10:27:18;;;;;;;1.33;1.23;;;14.90;99.90;;;;;;5042669;28;20433;-24
2021/09/18 10:29:50;;;;;;;1.60;1.10;;;14.90;99.90;;;;;;5043276;28;20445;-24
2021/09/18 10:32:25;;;;;;;1.07;0.97;;;14.90;99.90;;;;;;5042066;28;20484;-24
2021/09/18 10:35:21;;;;;;;0.70;0.70;;;14.90;99.90;;;;;;5042631;28;20499;-24
2021/09/18 10:37:53;;;;;;;1.80;1.07;;;14.90;99.90;;;;;;5025472;28;20457;-24
2021/09/18 10:40:24;;;;;;;1.40;0.97;;;14.90;99.90;;;;;;5043143;28;20517;-24
2021/09/18 10:42:55;;;;;;;1.87;1.23;;;14.90;99.90;;;;;;5042546;28;20495;-23
2021/09/18 10:45:41;;;;;;;1.30;1.20;;;14.90;99.90;;;;;;5042535;28;20487;-24
2021/09/18 10:48:36;;;;;;;1.30;1.17;;;14.90;99.90;;;;;;5041906;28;20457;-24
2021/09/18 10:51:09;;;;;;;1.63;1.37;;;14.90;99.90;;;;;;5047090;28;20457;-24
2021/09/18 10:54:12;;;;;;;0.87;0.83;;;14.90;99.90;;;;;;5047102;28;20464;-24
2021/09/18 10:57:06;;;;;;;0.90;0.90;;;14.90;99.90;;;;;;5040315;28;20568;-23
2021/09/18 10:59:49;;;;;;;1.70;0.90;;;14.80;99.90;;;;;;5046712;28;20464;-24
2021/09/18 11:02:45;;;;;;;3.13;1.27;;;14.80;99.90;;;;;;5045584;28;20449;-23
2021/09/18 11:05:45;;;;;;;1.50;1.17;;;14.80;99.90;;;;;;5046361;28;20457;-24
2021/09/18 11:08:34;;;;;;;2.10;1.90;;;14.80;99.90;;;;;;5026546;28;20478;-24
2021/09/18 11:11:12;;;;;;;4.13;1.30;;;14.90;99.90;;;;;;5026419;28;20597;-24
2021/09/18 11:13:44;;;;;;;1.80;1.40;;;14.80;99.90;;;;;;5026853;28;20453;-24
2021/09/18 11:16:24;;;;;;;1.87;1.60;;;14.70;99.90;;;;;;5025080;28;20519;-24
2021/09/18 11:19:01;;;;;;;1.60;1.40;;;14.70;99.90;;;;;;5026742;28;20586;-24
2021/09/18 11:21:36;;;;;;;2.93;1.00;;;14.70;99.90;;;;;;5026595;28;20497;-24
2021/09/18 11:24:23;;;;;;;1.60;1.07;;;14.60;99.90;;;;;;5026939;28;20457;-24
2021/09/18 11:26:54;;;;;;;0.53;0.53;;;14.60;99.90;;;;;;5025905;28;20521;-24
2021/09/18 11:29:33;;;;;;;1.73;0.93;;;14.70;99.90;;;;;;5035256;28;20945;-24
2021/09/18 11:32:11;;;;;;;1.10;1.00;;;14.60;99.90;;;;;;5044942;28;20455;-23
2021/09/18 11:34:48;;;;;;;1.83;1.70;;;14.60;99.90;;;;;;5045632;28;20567;-22
2021/09/18 11:37:29;;;;;;;1.90;1.60;;;14.60;99.90;;;;;;5045271;28;20445;-22
2021/09/18 11:40:03;;;;;;;2.83;1.90;;;14.70;99.90;;;;;;5045931;28;20433;-22
2021/09/18 11:42:37;;;;;;;1.57;1.47;;;14.60;99.90;;;;;;5045858;28;20448;-22
2021/09/18 11:45:12;;;;;;;1.70;1.60;;;14.60;99.90;;;;;;5045721;28;20473;-22
2021/09/18 11:47:44;;;;;;;1.63;1.20;;;14.60;99.90;;;;;;5044242;28;20468;-22
2021/09/18 11:50:20;;;;;;;1.33;1.23;;;14.60;99.90;;;;;;5045818;28;20446;-22
2021/09/18 11:52:53;;;;;;;1.43;0.90;;;14.60;99.90;;;;;;5045449;28;20944;-22
2021/09/18 11:55:31;;;;;;;2.07;0.80;;;14.60;99.90;;;;;;5045553;28;20489;-22
2021/09/18 11:58:05;;;;;;;0.70;0.63;;;14.70;99.90;;;;;;5025764;28;20469;-22
2021/09/18 12:00:37;;;;;;;1.70;0.73;;;14.70;99.90;;;;;;5024858;28;20450;-22
2021/09/18 12:03:08;;;;;;;1.30;1.20;;;14.70;99.90;;;;;;5024337;28;20957;-23
2021/09/18 12:05:40;;;;;;;1.43;1.20;;;14.70;99.90;;;;;;5025810;28;20466;-22
2021/09/18 12:08:13;;;;;;;1.90;0.90;;;14.60;99.90;;;;;;5025020;28;21126;-23
2021/09/18 12:10:46;;;;;;;1.50;1.00;;;14.60;99.90;;;;;;5025645;28;20922;-22
2021/09/18 12:13:22;;;;;;;1.33;0.73;;;14.70;99.90;;;;;;5025855;28;20478;-22
2021/09/18 12:15:54;;;;;;;1.83;0.80;;;14.80;99.90;;;;;;5025210;28;20513;-22
2021/09/18 12:18:27;;;;;;;2.20;1.13;;;14.70;99.90;;;;;;5025601;28;20524;-22
2021/09/18 12:21:00;;;;;;;1.57;1.20;;;14.70;99.90;;;;;;5025003;28;20450;-22
2021/09/18 12:23:32;;;;;;;1.77;1.00;;;14.70;99.90;;;;;;5025719;28;20474;-22
2021/09/18 12:26:07;;;;;;;1.47;1.10;;;14.70;99.90;;;;;;5024884;28;20461;-22
2021/09/18 12:28:38;;;;;;;1.47;1.20;;;14.80;99.90;;;;;;5027525;28;20430;-22
2021/09/18 12:31:17;;;;;;;0.90;0.70;;;14.70;99.90;;;;;;5044357;28;20480;-22
2021/09/18 12:33:49;;;;;;;4.50;1.57;;;14.70;99.90;;;;;;5045242;28;20449;-22
2021/09/18 12:36:23;;;;;;;1.80;1.00;;;14.70;99.90;;;;;;5044142;28;20630;-22
2021/09/18 12:38:57;;;;;;;1.67;1.27;;;14.70;99.90;;;;;;5045393;28;20445;-22
2021/09/18 12:41:30;;;;;;;2.00;1.63;;;14.80;99.90;;;;;;5044592;28;20450;-22
2021/09/18 12:44:03;;;;;;;2.07;0.80;;;14.70;99.90;;;;;;5044893;28;20466;-22
2021/09/18 12:46:41;;;;;;;1.30;1.13;;;14.80;99.90;;;;;;5043618;28;20456;-22
2021/09/18 12:49:13;;;;;;;1.73;1.53;;;14.80;99.90;;;;;;5045342;28;20485;-22
2021/09/18 12:51:46;;;;;;;3.43;1.63;;;14.80;99.90;;;;;;5044629;28;20492;-23
2021/09/18 12:54:18;;;;;;;1.63;1.50;;;14.80;99.90;;;;;;5044725;28;20484;-23
2021/09/18 12:56:51;;;;;;;1.50;1.40;;;14.70;99.90;;;;;;5044152;28;20489;-23
2021/09/18 12:59:23;;;;;;;1.40;1.10;;;14.70;99.90;;;;;;5044641;28;20480;-23
2021/09/18 13:01:56;;;;;;;2.00;1.00;;;14.60;99.90;;;;;;5043990;28;20453;-22
2021/09/18 13:04:30;;;;;;;1.30;1.20;;;14.70;99.90;;;;;;5044596;28;20544;-22
2021/09/18 13:07:02;;;;;;;1.60;1.00;;;14.70;99.90;;;;;;5043376;28;21470;-23
2021/09/18 13:09:34;;;;;;;1.80;1.27;;;14.80;99.90;;;;;;5044663;28;20464;-22
2021/09/18 13:12:11;;;;;;;1.67;1.03;;;14.80;99.90;;;;;;5043528;28;20488;-22
2021/09/18 13:14:44;;;;;;;3.03;1.40;;;14.80;99.90;;;;;;5044202;28;20479;-22
2021/09/18 13:17:20;;;;;;;2.07;1.50;;;14.90;99.90;;;;;;5042814;28;20437;-22
2021/09/18 13:19:53;;;;;;;2.10;1.80;;;14.80;99.90;;;;;;5044187;28;20473;-22